createdAt,value
2022-12-23T00:00:39.657Z,6.12
2022-12-23T00:05:39.637Z,6.31
2022-12-23T00:10:39.647Z,6
2022-12-23T00:15:39.622Z,5.75
2022-12-23T00:20:39.648Z,6.12
2022-12-23T00:25:39.611Z,5.87
2022-12-23T00:30:39.615Z,5.75
2022-12-23T00:35:39.704Z,5.87
2022-12-23T00:40:39.601Z,6.06
2022-12-23T00:45:39.627Z,6
2022-12-23T00:50:39.613Z,5.93
2022-12-23T00:55:39.607Z,5.68
2022-12-23T01:00:39.618Z,5.5
2022-12-23T01:05:39.619Z,5.31
2022-12-23T01:10:39.574Z,5.12
2022-12-23T01:15:39.592Z,5.06
2022-12-23T01:20:39.554Z,4.93
2022-12-23T01:25:39.560Z,4.87
2022-12-23T01:30:39.561Z,4.81
2022-12-23T01:35:39.557Z,4.68
2022-12-23T01:40:39.565Z,4.62
2022-12-23T01:45:39.576Z,4.56
2022-12-23T01:50:39.544Z,4.62
2022-12-23T01:55:39.556Z,4.5
2022-12-23T02:00:39.561Z,4.68
2022-12-23T02:05:39.529Z,4.87
2022-12-23T02:10:39.529Z,4.75
2022-12-23T02:15:39.575Z,4.87
2022-12-23T02:20:39.542Z,4.93
2022-12-23T02:25:39.524Z,4.93
2022-12-23T02:30:39.721Z,4.87
2022-12-23T02:35:39.522Z,4.81
2022-12-23T02:40:39.554Z,4.93
2022-12-23T02:45:39.517Z,5.25
2022-12-23T02:50:39.501Z,5.25
2022-12-23T02:55:39.512Z,5
2022-12-23T03:00:39.492Z,4.93
2022-12-23T03:05:39.501Z,5
2022-12-23T03:10:39.489Z,4.93
2022-12-23T03:15:39.544Z,4.93
2022-12-23T03:20:39.492Z,4.87
2022-12-23T03:25:39.465Z,4.93
2022-12-23T03:35:39.471Z,5
2022-12-23T03:40:39.470Z,5
2022-12-23T03:45:40.959Z,5.25
2022-12-23T03:50:39.477Z,5
2022-12-23T03:55:39.456Z,5
2022-12-23T04:00:39.441Z,5
2022-12-23T04:05:39.472Z,5.18
2022-12-23T04:10:39.459Z,5.25
2022-12-23T04:15:39.470Z,5.18
2022-12-23T04:20:39.460Z,5.18
2022-12-23T04:25:39.452Z,5.06
2022-12-23T04:30:39.436Z,4.93
2022-12-23T04:35:39.431Z,4.93
2022-12-23T04:40:39.423Z,4.81
2022-12-23T04:45:39.446Z,4.87
2022-12-23T04:50:39.430Z,4.81
2022-12-23T04:55:39.430Z,4.81
2022-12-23T05:00:40.184Z,4.75
2022-12-23T05:05:39.404Z,4.68
2022-12-23T05:10:39.406Z,4.81
2022-12-23T05:15:39.401Z,5.12
2022-12-23T05:20:39.395Z,6.68
2022-12-23T05:25:39.403Z,7.12
2022-12-23T05:30:39.418Z,7.75
2022-12-23T05:35:39.367Z,8
2022-12-23T05:40:39.368Z,8.06
2022-12-23T05:45:39.386Z,8.12
2022-12-23T05:50:39.393Z,8.37
2022-12-23T05:55:39.351Z,8.37
2022-12-23T06:00:39.360Z,8.37
2022-12-23T06:05:39.370Z,8.31
2022-12-23T06:10:39.359Z,8.43
2022-12-23T06:15:39.342Z,8.5
2022-12-23T06:20:39.343Z,8.5
2022-12-23T06:25:39.352Z,8.5
2022-12-23T06:30:39.348Z,8.5
2022-12-23T06:35:39.327Z,8.5
2022-12-23T06:40:39.320Z,8.56
2022-12-23T06:45:39.338Z,8.5
2022-12-23T06:50:39.333Z,8.43
2022-12-23T06:55:39.314Z,8.56
2022-12-23T07:00:39.308Z,8.68
2022-12-23T07:05:39.292Z,8.68
2022-12-23T07:10:39.311Z,9
2022-12-23T07:15:39.298Z,8.75
2022-12-23T07:20:39.273Z,8.81
2022-12-23T07:25:39.283Z,8.81
2022-12-23T07:30:39.293Z,8.75
2022-12-23T07:40:39.262Z,8.81
2022-12-23T07:45:39.272Z,8.87
2022-12-23T07:50:39.263Z,8.93
2022-12-23T08:05:39.240Z,8.75
2022-12-23T08:15:39.230Z,8.43
2022-12-23T08:35:39.196Z,9.31
2022-12-23T08:45:39.209Z,9
2022-12-23T08:55:39.191Z,8.81
2022-12-23T09:00:39.205Z,8.87
2022-12-23T09:05:39.189Z,9.25
2022-12-23T09:10:39.219Z,9.31
2022-12-23T09:15:39.210Z,8.75
2022-12-23T09:20:39.178Z,8.81
2022-12-23T09:25:39.180Z,8.93
2022-12-23T09:30:39.170Z,9.06
2022-12-23T09:35:39.172Z,8.93
2022-12-23T09:40:39.160Z,9.12
2022-12-23T09:45:40.765Z,9.43
2022-12-23T09:50:39.141Z,9.31
2022-12-23T09:55:39.137Z,9.12
2022-12-23T10:00:39.141Z,9.25
2022-12-23T10:05:39.117Z,9.56
2022-12-23T10:10:39.115Z,9.56
2022-12-23T10:15:39.269Z,9.56
2022-12-23T10:20:39.106Z,9.43
2022-12-23T10:25:39.113Z,9.5
2022-12-23T10:31:17.036Z,9.25
2022-12-23T10:35:39.104Z,9.12
2022-12-23T10:40:39.106Z,8.93
2022-12-23T10:45:39.097Z,8.87
2022-12-23T10:50:39.095Z,8.93
2022-12-23T10:55:39.116Z,8.87
2022-12-23T11:00:39.128Z,9
2022-12-23T11:05:39.049Z,9
2022-12-23T11:10:39.067Z,9
2022-12-23T11:15:39.064Z,9.06
2022-12-23T11:20:39.049Z,9.25
2022-12-23T11:25:39.080Z,9.37
2022-12-23T11:30:39.067Z,9.25
2022-12-23T11:35:39.105Z,9.37
2022-12-23T11:40:39.039Z,9.5
2022-12-23T11:45:39.073Z,9.37
2022-12-23T11:50:39.036Z,9.68
2022-12-23T11:55:39.018Z,9.62
2022-12-23T12:00:39.044Z,10.06
2022-12-23T12:05:39.025Z,10.06
2022-12-23T12:10:39.019Z,10.12
2022-12-23T12:15:39.014Z,10.56
2022-12-23T12:20:39.004Z,10.5
2022-12-23T12:25:39.808Z,10.25
2022-12-23T12:30:39.078Z,10.62
2022-12-23T12:35:39.023Z,11
2022-12-23T12:40:38.993Z,10.93
2022-12-23T12:45:39.016Z,10.62
2022-12-23T12:50:38.985Z,10.37
2022-12-23T12:55:38.973Z,9.87
2022-12-23T13:00:38.953Z,9.68
2022-12-23T13:05:38.953Z,9.62
2022-12-23T13:10:38.939Z,9.75
2022-12-23T13:15:38.930Z,9.5
2022-12-23T13:20:38.960Z,9.37
2022-12-23T13:25:38.957Z,9.25
2022-12-23T13:30:38.954Z,9.12
2022-12-23T13:35:38.930Z,9.06
2022-12-23T13:40:38.929Z,9.06
2022-12-23T13:45:38.917Z,9.12
2022-12-23T13:50:38.907Z,9.31
2022-12-23T13:55:38.904Z,9.43
2022-12-23T14:00:38.884Z,9.75
2022-12-23T14:05:38.901Z,9.68
2022-12-23T14:10:38.894Z,9.62
2022-12-23T14:15:38.914Z,9.56
2022-12-23T14:20:38.860Z,9.62
2022-12-23T14:25:38.891Z,9.5
2022-12-23T14:30:38.853Z,9.43
2022-12-23T14:35:42.570Z,9.37
2022-12-23T14:40:38.880Z,9.37
2022-12-23T14:45:38.855Z,9.37
2022-12-23T14:50:38.856Z,9.37
2022-12-23T14:55:38.831Z,9.37
2022-12-23T15:00:38.832Z,9.31
2022-12-23T15:05:38.847Z,9.12
2022-12-23T15:10:38.818Z,9.12
2022-12-23T15:15:38.846Z,9.06
2022-12-23T15:20:38.806Z,9
2022-12-23T15:25:38.832Z,9.12
2022-12-23T15:30:38.826Z,9.06
2022-12-23T15:35:38.786Z,9
2022-12-23T15:40:38.810Z,8.93
2022-12-23T15:45:38.800Z,8.93
2022-12-23T15:50:38.807Z,8.75
2022-12-23T15:55:38.795Z,8.75
2022-12-23T16:00:38.769Z,8.62
2022-12-23T16:05:38.768Z,8.56
2022-12-23T16:10:38.795Z,8.5
2022-12-23T16:15:38.760Z,8.43
2022-12-23T16:20:38.770Z,8.62
2022-12-23T16:25:38.768Z,8.43
2022-12-23T16:30:38.788Z,8.5
2022-12-23T16:35:38.737Z,8.25
2022-12-23T16:40:38.741Z,8.12
2022-12-23T16:45:38.778Z,8.18
2022-12-23T16:50:38.743Z,8
2022-12-23T16:55:40.835Z,8
2022-12-23T17:00:38.765Z,8
2022-12-23T17:05:38.730Z,8
2022-12-23T17:10:38.731Z,8.12
2022-12-23T17:15:38.728Z,7.93
2022-12-23T17:20:38.703Z,8
2022-12-23T17:25:38.680Z,7.87
2022-12-23T17:30:38.704Z,7.87
2022-12-23T17:35:38.695Z,7.93
2022-12-23T17:40:38.709Z,8.12
2022-12-23T17:45:38.726Z,8.37
2022-12-23T17:50:38.658Z,9.12
2022-12-23T17:55:38.663Z,9.25
2022-12-23T18:00:38.670Z,9.5
2022-12-23T18:05:38.654Z,9.68
2022-12-23T18:10:38.645Z,9.56
2022-12-23T18:15:38.641Z,9.62
2022-12-23T18:20:38.635Z,9.68
2022-12-23T18:25:38.618Z,9.62
2022-12-23T18:30:38.653Z,9.43
2022-12-23T18:35:38.646Z,9.43
2022-12-23T18:40:38.625Z,9.56
2022-12-23T18:45:38.609Z,9.62
2022-12-23T18:50:38.607Z,9.43
2022-12-23T18:55:38.619Z,9.5
2022-12-23T19:00:38.639Z,9.56
2022-12-23T19:05:38.603Z,9.68
2022-12-23T19:10:38.626Z,9.56
2022-12-23T19:15:38.585Z,9.75
2022-12-23T19:20:38.580Z,9.75
2022-12-23T19:25:38.588Z,9.87
2022-12-23T19:30:38.637Z,9.93
2022-12-23T19:35:38.561Z,9.93
2022-12-23T19:40:38.672Z,10.06
2022-12-23T19:45:38.570Z,10.06
2022-12-23T19:50:38.569Z,10.12
2022-12-23T19:55:38.577Z,10
2022-12-23T20:00:38.545Z,10.12
2022-12-23T20:05:38.533Z,10.12
2022-12-23T20:10:38.544Z,10.06
2022-12-23T20:20:38.544Z,10.06
2022-12-23T20:25:38.561Z,10.18
2022-12-23T20:35:38.508Z,10.18
2022-12-23T20:40:38.511Z,10.18
2022-12-23T20:45:38.496Z,10.43
2022-12-23T20:50:38.501Z,10.56
2022-12-23T20:55:38.490Z,10.56
2022-12-23T21:00:38.476Z,10.5
2022-12-23T21:05:38.489Z,10.75
2022-12-23T21:10:38.490Z,10.62
2022-12-23T21:15:38.488Z,10.75
2022-12-23T21:20:38.458Z,10.5
2022-12-23T21:25:38.468Z,10.56
2022-12-23T21:30:38.465Z,10.37
2022-12-23T21:35:38.448Z,10.18
2022-12-23T21:40:38.452Z,10.12
2022-12-23T21:45:38.450Z,10.12
2022-12-23T21:50:38.458Z,9.81
2022-12-23T21:55:38.422Z,9.62
2022-12-23T22:00:38.468Z,9.43
2022-12-23T22:05:38.439Z,9.37
2022-12-23T22:10:38.422Z,9.43
2022-12-23T22:15:38.400Z,9.43
2022-12-23T22:20:42.629Z,9.5
2022-12-23T22:25:38.405Z,9.5
2022-12-23T22:30:38.404Z,9.43
2022-12-23T22:40:38.392Z,9.37
2022-12-23T22:45:38.375Z,9.56
2022-12-23T22:55:38.370Z,9.5
2022-12-23T23:10:38.370Z,9.5
2022-12-23T23:20:38.342Z,9.81
2022-12-23T23:25:38.356Z,9.56
2022-12-23T23:30:38.355Z,9.68
2022-12-23T23:40:38.311Z,9.68
2022-12-23T23:45:38.384Z,9.81
2022-12-23T23:50:38.337Z,9.81
2022-12-23T23:55:38.315Z,9.81
